Thurso, United Kingdom
Current Conditions -  °F | °C
As of 12:20 AM on Tuesday 21 Oct 2014 (Local Time) from EGPC Reporting Station
Clear Clear  
Wind Chill: 52°   Ceiling: Unl
Heat Index: 52°   Visibility: 6mi
Dew Point: 48°   Wind: 13mph
Humidity: 88%   Direction: 270°W
Pressure: 29.23"   Gusts: NA
Location:  58.59°N, 3.53°W
Report Text: EGPC 202320Z AUTO 27011KT 240V310 9999 NCD 11/09 Q0990
Loading
Personal Weather Stations






























Interactive Weather Map
Tropical Storm Tracking
New forecast layout! Learn more

10-Day Weather Forecast

Advertisements
Track Severe Weather on mobile